createdAt,value
2018-06-15T00:00:44.576Z,27.37
2018-06-15T00:03:13.172Z,25.60
2018-06-15T00:05:41.611Z,25.30
2018-06-15T00:08:10.052Z,27.00
2018-06-15T00:10:38.664Z,25.70
2018-06-15T00:13:07.216Z,26.90
2018-06-15T00:15:37.870Z,27.43
2018-06-15T00:18:06.130Z,28.40
2018-06-15T00:20:34.919Z,30.13
2018-06-15T00:23:05.874Z,25.77
2018-06-15T00:25:34.390Z,23.60
2018-06-15T00:28:02.801Z,23.53
2018-06-15T00:30:33.392Z,23.67
2018-06-15T00:33:01.787Z,27.60
2018-06-15T00:35:30.333Z,27.33
2018-06-15T00:38:00.985Z,28.80
2018-06-15T00:40:29.524Z,29.10
2018-06-15T00:42:58.070Z,27.63
2018-06-15T00:45:26.489Z,26.07
2018-06-15T00:47:54.927Z,25.03
2018-06-15T00:50:23.439Z,25.93
2018-06-15T00:52:51.856Z,28.40
2018-06-15T00:55:20.493Z,29.87
2018-06-15T00:57:49.887Z,26.17
2018-06-15T01:00:18.393Z,26.43
2018-06-15T01:02:47.170Z,28.03
2018-06-15T01:05:15.422Z,30.10
2018-06-15T01:07:43.768Z,29.00
2018-06-15T01:10:12.102Z,31.93
2018-06-15T01:12:40.368Z,30.30
2018-06-15T01:15:08.738Z,31.90
2018-06-15T01:17:37.739Z,33.33
2018-06-15T01:20:06.078Z,26.80
2018-06-15T01:22:34.461Z,30.00
2018-06-15T01:25:02.808Z,30.10
2018-06-15T01:27:31.066Z,34.67
2018-06-15T01:29:59.915Z,31.93
2018-06-15T01:32:28.233Z,36.20
2018-06-15T01:34:56.489Z,33.00
2018-06-15T01:37:24.689Z,32.50
2018-06-15T01:39:53.057Z,30.03
2018-06-15T01:42:21.554Z,32.60
2018-06-15T01:44:49.821Z,29.97
2018-06-15T01:47:18.171Z,30.70
2018-06-15T01:49:46.493Z,26.53
2018-06-15T01:52:14.718Z,23.40
2018-06-15T01:54:43.061Z,26.17
2018-06-15T01:57:11.497Z,23.10
2018-06-15T01:59:39.762Z,21.00
2018-06-15T02:02:08.011Z,23.17
2018-06-15T02:04:36.302Z,27.17
2018-06-15T02:07:04.748Z,24.60
2018-06-15T02:09:33.087Z,30.20
2018-06-15T02:12:01.373Z,26.50
2018-06-15T02:14:29.697Z,25.20
2018-06-15T02:16:58.020Z,22.40
2018-06-15T02:19:26.231Z,25.30
2018-06-15T02:21:54.726Z,29.93
2018-06-15T02:24:23.056Z,31.70
2018-06-15T02:26:51.393Z,37.90
2018-06-15T02:29:19.653Z,27.67
2018-06-15T02:31:47.884Z,29.70
2018-06-15T02:34:16.223Z,32.77
2018-06-15T02:36:44.516Z,69.53
2018-06-15T02:39:12.886Z,60.67
2018-06-15T02:41:41.390Z,28.83
2018-06-15T02:44:09.646Z,23.87
2018-06-15T02:46:38.067Z,32.10
2018-06-15T02:49:06.525Z,33.93
2018-06-15T02:51:34.981Z,83.47
2018-06-15T02:54:03.366Z,47.23
2018-06-15T02:56:31.951Z,66.27
2018-06-15T02:59:00.282Z,50.63
2018-06-15T03:01:28.787Z,23.97
2018-06-15T03:03:57.116Z,26.70
2018-06-15T03:06:25.941Z,49.00
2018-06-15T03:08:54.347Z,41.23
2018-06-15T03:11:22.722Z,31.67
2018-06-15T03:13:51.079Z,34.50
2018-06-15T03:16:19.284Z,32.03
2018-06-15T03:18:47.683Z,36.40
2018-06-15T03:21:15.975Z,39.60
2018-06-15T03:23:44.332Z,34.73
2018-06-15T03:26:12.686Z,40.07
2018-06-15T03:28:41.021Z,38.77
2018-06-15T03:31:09.397Z,41.53
2018-06-15T03:33:37.712Z,45.50
2018-06-15T03:36:06.115Z,41.97
2018-06-15T03:38:35.278Z,47.17
2018-06-15T03:41:06.781Z,43.07
2018-06-15T03:43:34.998Z,42.33
2018-06-15T03:46:03.262Z,42.83
2018-06-15T03:48:31.641Z,39.30
2018-06-15T03:51:00.032Z,44.03
2018-06-15T03:53:28.260Z,41.20
2018-06-15T03:55:56.620Z,42.07
2018-06-15T03:58:24.947Z,45.97
2018-06-15T04:00:53.274Z,42.50
2018-06-15T04:03:21.591Z,40.17
2018-06-15T04:05:49.825Z,37.50
2018-06-15T04:08:18.601Z,37.73
2018-06-15T04:10:47.018Z,40.93
2018-06-15T04:13:15.440Z,40.63
2018-06-15T04:15:43.735Z,36.17
2018-06-15T04:18:12.075Z,40.50
2018-06-15T04:20:40.503Z,43.47
2018-06-15T04:23:08.821Z,39.40
2018-06-15T04:25:37.146Z,40.90
2018-06-15T04:28:05.392Z,37.77
2018-06-15T04:30:33.744Z,36.40
2018-06-15T04:33:02.071Z,44.90
2018-06-15T04:35:30.437Z,42.40
2018-06-15T04:37:59.058Z,45.23
2018-06-15T04:40:27.426Z,40.03
2018-06-15T04:42:55.723Z,41.93
2018-06-15T04:45:24.968Z,41.17
2018-06-15T04:47:53.386Z,38.77
2018-06-15T04:50:21.797Z,43.40
2018-06-15T04:52:50.258Z,45.37
2018-06-15T04:55:18.578Z,45.33
2018-06-15T04:57:46.892Z,43.87
2018-06-15T05:00:15.281Z,46.37
2018-06-15T05:02:43.648Z,42.63
2018-06-15T05:05:12.047Z,48.17
2018-06-15T05:07:40.425Z,50.57
2018-06-15T05:10:08.815Z,44.90
2018-06-15T05:12:37.118Z,47.30
2018-06-15T05:15:05.409Z,44.47
2018-06-15T05:17:33.821Z,43.47
2018-06-15T05:20:02.236Z,37.50
2018-06-15T05:22:30.647Z,38.90
2018-06-15T05:24:58.930Z,46.53
2018-06-15T05:27:27.266Z,42.03
2018-06-15T05:29:55.655Z,41.13
2018-06-15T05:32:24.165Z,33.20
2018-06-15T05:34:52.530Z,42.53
2018-06-15T05:37:20.928Z,37.07
2018-06-15T05:39:49.228Z,37.20
2018-06-15T05:42:17.648Z,38.00
2018-06-15T05:44:46.011Z,35.20
2018-06-15T05:47:14.415Z,36.97
2018-06-15T05:49:42.767Z,39.00
2018-06-15T05:52:11.165Z,33.93
2018-06-15T05:54:39.539Z,37.77
2018-06-15T05:57:07.834Z,36.13
2018-06-15T05:59:36.231Z,34.50
2018-06-15T06:02:04.631Z,33.23
2018-06-15T06:04:33.021Z,37.03
2018-06-15T06:07:01.479Z,33.97
2018-06-15T06:09:29.910Z,32.07
2018-06-15T06:11:58.222Z,29.20
2018-06-15T06:14:26.564Z,31.87
2018-06-15T06:16:55.043Z,26.43
2018-06-15T06:19:23.455Z,30.20
2018-06-15T06:21:51.723Z,29.17
2018-06-15T06:24:20.033Z,32.67
2018-06-15T06:26:48.355Z,30.10
2018-06-15T06:29:16.682Z,35.10
2018-06-15T06:31:45.086Z,30.07
2018-06-15T06:34:13.391Z,27.03
2018-06-15T06:36:41.645Z,26.47
2018-06-15T06:39:11.855Z,24.80
2018-06-15T06:41:40.503Z,26.70
2018-06-15T06:44:09.844Z,28.93
2018-06-15T06:46:38.198Z,26.57
2018-06-15T06:49:06.472Z,26.07
2018-06-15T06:51:34.867Z,30.60
2018-06-15T06:54:03.257Z,24.93
2018-06-15T06:56:31.621Z,24.17
2018-06-15T06:58:59.929Z,25.47
2018-06-15T07:01:28.209Z,23.43
2018-06-15T07:03:56.523Z,22.70
2018-06-15T07:06:24.895Z,24.00
2018-06-15T07:08:53.215Z,24.43
2018-06-15T07:11:21.604Z,24.33
2018-06-15T07:13:49.852Z,26.57
2018-06-15T07:16:18.120Z,24.50
2018-06-15T07:18:46.427Z,27.07
2018-06-15T07:21:14.871Z,22.20
2018-06-15T07:23:43.159Z,26.07
2018-06-15T07:26:11.463Z,23.87
2018-06-15T07:28:39.790Z,19.30
2018-06-15T07:31:08.273Z,19.80
2018-06-15T07:33:36.837Z,18.87
2018-06-15T07:36:05.254Z,22.20
2018-06-15T07:38:33.667Z,20.50
2018-06-15T07:41:01.946Z,23.17
2018-06-15T07:43:30.264Z,20.27
2018-06-15T07:45:58.676Z,21.27
2018-06-15T07:48:26.966Z,21.70
2018-06-15T07:50:55.323Z,22.90
2018-06-15T07:53:23.677Z,21.13
2018-06-15T07:55:51.927Z,25.30
2018-06-15T07:58:20.295Z,19.00
2018-06-15T08:00:48.595Z,19.60
2018-06-15T08:03:16.878Z,32.00
2018-06-15T08:05:45.247Z,22.97
2018-06-15T08:08:13.992Z,19.87
2018-06-15T08:10:42.334Z,21.03
2018-06-15T08:13:10.658Z,19.03
2018-06-15T08:15:38.958Z,17.83
2018-06-15T08:18:07.343Z,16.70
2018-06-15T08:20:35.714Z,19.10
2018-06-15T08:23:04.112Z,20.87
2018-06-15T08:25:32.493Z,19.00
2018-06-15T08:28:00.903Z,20.83
2018-06-15T08:30:29.362Z,19.10
2018-06-15T08:32:57.651Z,18.07
2018-06-15T08:35:26.017Z,20.53
2018-06-15T08:37:54.347Z,17.70
2018-06-15T08:40:22.612Z,19.23
2018-06-15T08:42:50.899Z,19.60
2018-06-15T08:45:19.194Z,20.40
2018-06-15T08:47:47.671Z,22.00
2018-06-15T08:50:15.971Z,17.90
2018-06-15T08:52:44.299Z,20.03
2018-06-15T08:55:12.620Z,18.50
2018-06-15T08:57:40.993Z,18.10
2018-06-15T09:00:09.353Z,18.20
2018-06-15T09:02:37.839Z,22.03
2018-06-15T09:05:06.253Z,18.20
2018-06-15T09:07:34.643Z,18.07
2018-06-15T09:10:02.975Z,17.83
2018-06-15T09:12:31.286Z,17.80
2018-06-15T09:14:59.622Z,17.47
2018-06-15T09:17:28.038Z,19.63
2018-06-15T09:19:56.323Z,16.57
2018-06-15T09:22:24.790Z,18.57
2018-06-15T09:24:53.383Z,17.40
2018-06-15T09:27:22.370Z,15.47
2018-06-15T09:29:50.710Z,15.43
2018-06-15T09:32:19.104Z,16.20
2018-06-15T09:34:52.084Z,17.03
2018-06-15T09:37:20.489Z,15.20
2018-06-15T09:39:48.776Z,15.37
2018-06-15T09:42:17.112Z,16.57
2018-06-15T09:44:45.420Z,17.07
2018-06-15T09:47:13.747Z,15.37
2018-06-15T09:49:42.023Z,17.40
2018-06-15T09:52:10.336Z,16.20
2018-06-15T09:54:38.642Z,16.00
2018-06-15T09:57:07.569Z,14.43
2018-06-15T09:59:35.848Z,13.97
2018-06-15T10:02:05.922Z,12.00
2018-06-15T10:04:34.294Z,13.77
2018-06-15T10:07:02.553Z,12.90
2018-06-15T10:09:30.890Z,12.10
2018-06-15T10:11:59.200Z,13.23
2018-06-15T10:14:27.539Z,13.10
2018-06-15T10:16:56.731Z,11.83
2018-06-15T10:19:25.016Z,13.50
2018-06-15T10:21:53.467Z,10.47
2018-06-15T10:24:21.791Z,13.80
2018-06-15T10:26:50.151Z,13.57
2018-06-15T10:29:18.517Z,12.50
2018-06-15T10:31:46.770Z,14.30
2018-06-15T10:34:15.285Z,12.97
2018-06-15T10:36:43.615Z,13.80
2018-06-15T10:39:12.101Z,14.17
2018-06-15T10:41:41.103Z,14.03
2018-06-15T10:44:23.364Z,15.73
2018-06-15T10:46:51.667Z,14.03
2018-06-15T10:49:20.057Z,12.57
2018-06-15T10:51:48.495Z,15.00
2018-06-15T10:54:23.875Z,13.50
2018-06-15T10:56:52.196Z,11.20
2018-06-15T10:59:20.569Z,13.10
2018-06-15T11:01:48.995Z,13.23
2018-06-15T11:04:19.357Z,14.63
2018-06-15T11:06:47.630Z,14.40
2018-06-15T11:09:16.067Z,10.70
2018-06-15T11:11:44.470Z,12.80
2018-06-15T11:14:13.895Z,10.53
2018-06-15T11:16:42.267Z,10.80
2018-06-15T11:19:10.548Z,11.30
2018-06-15T11:21:38.807Z,15.47
2018-06-15T11:24:08.299Z,13.00
2018-06-15T11:26:36.589Z,11.87
2018-06-15T11:29:04.958Z,12.80
2018-06-15T11:31:33.403Z,9.87
2018-06-15T11:34:02.734Z,10.43
2018-06-15T11:36:31.079Z,8.47
2018-06-15T11:38:59.425Z,8.00
2018-06-15T11:41:27.833Z,9.20
2018-06-15T11:44:04.726Z,6.63
2018-06-15T11:46:33.102Z,8.73
2018-06-15T11:49:01.431Z,9.53
2018-06-15T11:51:29.675Z,8.87
2018-06-15T11:53:58.014Z,10.60
2018-06-15T11:56:26.488Z,8.67
2018-06-15T11:58:54.767Z,8.70
2018-06-15T12:01:23.070Z,7.37
2018-06-15T12:03:52.439Z,11.37
2018-06-15T12:06:20.704Z,8.33
2018-06-15T12:08:49.113Z,8.53
2018-06-15T12:11:17.441Z,5.93
2018-06-15T12:13:45.909Z,7.47
2018-06-15T12:16:14.298Z,8.40
2018-06-15T12:18:42.702Z,7.10
2018-06-15T12:21:11.111Z,7.00
2018-06-15T12:23:39.481Z,7.60
2018-06-15T12:26:09.745Z,7.50
2018-06-15T12:28:38.240Z,5.53
2018-06-15T12:31:06.644Z,9.43
2018-06-15T12:33:34.951Z,10.03
2018-06-15T12:36:03.289Z,6.73
2018-06-15T12:38:31.559Z,9.27
2018-06-15T12:40:59.931Z,7.20
2018-06-15T12:43:28.907Z,8.30
2018-06-15T12:45:57.327Z,7.63
2018-06-15T12:48:25.646Z,9.43
2018-06-15T12:50:53.908Z,7.63
2018-06-15T12:53:25.023Z,7.80
2018-06-15T12:55:53.449Z,8.70
2018-06-15T12:58:21.737Z,10.27
2018-06-15T13:00:50.210Z,8.33
2018-06-15T13:03:18.519Z,8.90
2018-06-15T13:05:47.838Z,8.47
2018-06-15T13:08:16.233Z,8.17
2018-06-15T13:10:44.560Z,10.30
2018-06-15T13:13:12.899Z,10.80
2018-06-15T13:15:53.746Z,8.67
2018-06-15T13:18:22.067Z,9.47
2018-06-15T13:20:50.387Z,10.20
2018-06-15T13:23:18.854Z,13.40
2018-06-15T13:26:00.996Z,12.70
2018-06-15T13:28:29.386Z,9.10
2018-06-15T13:30:58.023Z,9.70
2018-06-15T13:33:26.707Z,7.83
2018-06-15T13:36:09.220Z,8.50
2018-06-15T13:38:37.558Z,8.50
2018-06-15T13:41:05.909Z,8.97
2018-06-15T13:43:34.366Z,8.40
2018-06-15T13:46:19.823Z,8.17
2018-06-15T13:48:48.167Z,9.93
2018-06-15T13:51:17.308Z,7.67
2018-06-15T13:53:45.622Z,7.73
2018-06-15T13:56:26.955Z,8.55
2018-06-15T13:58:56.285Z,8.55
2018-06-15T14:01:24.771Z,9.95
2018-06-15T14:03:53.237Z,9.95
2018-06-15T14:06:24.971Z,8.33
2018-06-15T14:08:53.326Z,9.78
2018-06-15T14:11:21.732Z,10.25
2018-06-15T14:13:50.024Z,9.33
2018-06-15T14:16:35.113Z,10.63
2018-06-15T14:19:03.402Z,10.30
2018-06-15T14:21:31.771Z,9.00
2018-06-15T14:24:00.120Z,8.45
2018-06-15T14:26:36.762Z,10.05
2018-06-15T14:29:05.049Z,10.68
2018-06-15T14:31:33.329Z,9.23
2018-06-15T14:34:01.636Z,10.50
2018-06-15T14:36:38.814Z,9.33
2018-06-15T14:39:08.244Z,8.90
2018-06-15T14:41:36.604Z,9.67
2018-06-15T14:44:06.180Z,10.33
2018-06-15T14:46:38.867Z,13.03
2018-06-15T14:49:07.242Z,8.80
2018-06-15T14:51:35.585Z,9.20
2018-06-15T14:54:03.969Z,8.70
2018-06-15T14:56:40.391Z,8.47
2018-06-15T14:59:08.714Z,13.40
2018-06-15T15:01:37.045Z,9.07
2018-06-15T15:04:05.527Z,10.57
2018-06-15T15:06:33.835Z,9.10
2018-06-15T15:09:02.259Z,8.73
2018-06-15T15:11:30.566Z,8.93
2018-06-15T15:13:58.933Z,7.53
2018-06-15T15:16:48.421Z,8.37
2018-06-15T15:19:16.953Z,8.67
2018-06-15T15:21:45.199Z,9.47
2018-06-15T15:24:13.644Z,8.53
2018-06-15T15:26:56.981Z,9.20
2018-06-15T15:29:25.283Z,8.30
2018-06-15T15:31:53.523Z,8.77
2018-06-15T15:34:21.915Z,6.83
2018-06-15T15:36:57.897Z,8.87
2018-06-15T15:39:26.299Z,7.63
2018-06-15T15:41:54.545Z,6.83
2018-06-15T15:44:22.824Z,7.70
2018-06-15T15:46:51.158Z,9.93
2018-06-15T15:49:19.495Z,9.63
2018-06-15T15:51:47.799Z,7.33
2018-06-15T15:54:16.089Z,7.42
2018-06-15T15:56:47.422Z,7.95
2018-06-15T15:59:15.721Z,8.58
2018-06-15T16:01:44.084Z,7.58
2018-06-15T16:04:12.354Z,10.40
2018-06-15T16:06:40.637Z,8.53
2018-06-15T16:09:09.676Z,7.60
2018-06-15T16:11:38.063Z,6.80
2018-06-15T16:14:06.462Z,7.27
2018-06-15T16:16:34.813Z,7.13
2018-06-15T16:19:03.184Z,7.57
2018-06-15T16:21:31.653Z,6.33
2018-06-15T16:23:59.962Z,7.53
2018-06-15T16:26:28.363Z,6.80
2018-06-15T16:28:56.784Z,7.00
2018-06-15T16:31:25.119Z,7.33
2018-06-15T16:33:53.566Z,7.53
2018-06-15T16:36:22.056Z,5.87
2018-06-15T16:38:51.322Z,7.80
2018-06-15T16:41:19.678Z,6.17
2018-06-15T16:43:47.950Z,6.87
2018-06-15T16:46:16.370Z,5.85
2018-06-15T16:48:44.695Z,6.50
2018-06-15T16:51:13.052Z,6.20
2018-06-15T16:53:41.316Z,5.70
2018-06-15T16:56:09.766Z,7.40
2018-06-15T16:58:38.108Z,6.57
2018-06-15T17:01:06.514Z,6.30
2018-06-15T17:03:34.964Z,6.10
2018-06-15T17:06:03.390Z,7.00
2018-06-15T17:08:31.746Z,5.43
2018-06-15T17:11:00.210Z,5.00
2018-06-15T17:13:28.580Z,5.50
2018-06-15T17:15:56.896Z,5.67
2018-06-15T17:18:25.282Z,6.73
2018-06-15T17:20:53.642Z,6.07
2018-06-15T17:23:21.979Z,6.10
2018-06-15T17:25:50.394Z,5.27
2018-06-15T17:28:18.678Z,5.93
2018-06-15T17:30:46.963Z,4.53
2018-06-15T17:33:15.263Z,5.70
2018-06-15T17:35:43.683Z,5.50
2018-06-15T17:38:12.081Z,5.50
2018-06-15T17:40:40.368Z,4.97
2018-06-15T17:43:08.678Z,4.60
2018-06-15T17:45:37.020Z,5.87
2018-06-15T17:48:05.511Z,5.20
2018-06-15T17:50:33.797Z,5.03
2018-06-15T17:53:02.157Z,5.57
2018-06-15T17:55:30.466Z,4.27
2018-06-15T17:57:58.773Z,5.40
2018-06-15T18:00:27.131Z,4.80
2018-06-15T18:02:55.513Z,5.50
2018-06-15T18:05:23.847Z,5.60
2018-06-15T18:07:52.278Z,5.00
2018-06-15T18:10:20.678Z,4.23
2018-06-15T18:12:49.002Z,4.30
2018-06-15T18:15:17.251Z,3.90
2018-06-15T18:17:45.568Z,6.07
2018-06-15T18:20:13.979Z,4.70
2018-06-15T18:22:42.243Z,4.37
2018-06-15T18:25:10.577Z,4.70
2018-06-15T18:27:38.870Z,3.60
2018-06-15T18:30:07.238Z,4.53
2018-06-15T18:32:35.519Z,5.27
2018-06-15T18:35:03.945Z,5.03
2018-06-15T18:37:32.262Z,4.03
2018-06-15T18:40:00.496Z,4.27
2018-06-15T18:42:28.869Z,4.33
2018-06-15T18:44:57.286Z,5.27
2018-06-15T18:47:25.545Z,5.03
2018-06-15T18:49:53.865Z,3.57
2018-06-15T18:52:22.271Z,4.77
2018-06-15T18:54:50.618Z,4.30
2018-06-15T18:57:18.988Z,6.37
2018-06-15T18:59:47.403Z,4.80
2018-06-15T19:02:16.755Z,5.50
2018-06-15T19:04:45.121Z,6.40
2018-06-15T19:07:13.506Z,5.00
2018-06-15T19:09:41.703Z,4.60
2018-06-15T19:12:10.158Z,5.53
2018-06-15T19:14:38.591Z,7.33
2018-06-15T19:17:08.025Z,5.90
2018-06-15T19:19:36.297Z,7.30
2018-06-15T19:22:04.730Z,6.17
2018-06-15T19:24:33.007Z,7.40
2018-06-15T19:27:01.355Z,7.07
2018-06-15T19:29:29.690Z,5.30
2018-06-15T19:31:58.070Z,5.40
2018-06-15T19:34:26.707Z,6.97
2018-06-15T19:36:55.382Z,5.57
2018-06-15T19:39:24.093Z,4.40
2018-06-15T19:41:52.771Z,4.97
2018-06-15T19:44:21.383Z,5.20
2018-06-15T19:46:50.124Z,3.93
2018-06-15T19:49:18.722Z,5.30
2018-06-15T19:51:47.303Z,6.00
2018-06-15T19:54:15.649Z,5.90
2018-06-15T19:56:44.210Z,10.47
2018-06-15T19:59:12.491Z,9.30
2018-06-15T20:01:40.807Z,10.47
2018-06-15T20:04:09.232Z,8.90
2018-06-15T20:06:38.564Z,7.33
2018-06-15T20:09:07.692Z,9.43
2018-06-15T20:11:36.342Z,9.17
2018-06-15T20:14:04.772Z,7.60
2018-06-15T20:16:33.237Z,5.20
2018-06-15T20:19:01.617Z,7.60
2018-06-15T20:21:29.873Z,7.00
2018-06-15T20:23:58.317Z,6.40
2018-06-15T20:26:26.693Z,5.07
2018-06-15T20:28:55.101Z,6.80
2018-06-15T20:31:23.505Z,5.10
2018-06-15T20:33:51.855Z,5.80
2018-06-15T20:36:20.285Z,6.13
2018-06-15T20:38:48.661Z,4.57
2018-06-15T20:41:17.996Z,6.40
2018-06-15T20:43:46.259Z,5.50
2018-06-15T20:46:15.372Z,6.40
2018-06-15T20:48:43.707Z,5.20
2018-06-15T20:51:11.886Z,5.20
2018-06-15T20:53:40.296Z,6.03
2018-06-15T20:56:08.649Z,5.23
2018-06-15T20:58:36.877Z,6.13
2018-06-15T21:01:06.011Z,6.30
2018-06-15T21:03:34.420Z,6.40
2018-06-15T21:06:03.252Z,4.90
2018-06-15T21:08:31.456Z,6.23
2018-06-15T21:10:59.806Z,5.23
2018-06-15T21:13:28.127Z,7.83
2018-06-15T21:15:56.536Z,5.37
2018-06-15T21:18:24.972Z,7.90
2018-06-15T21:20:53.230Z,5.27
2018-06-15T21:23:21.692Z,5.43
2018-06-15T21:25:50.072Z,7.57
2018-06-15T21:28:19.325Z,5.70
2018-06-15T21:30:47.694Z,6.30
2018-06-15T21:33:16.119Z,7.33
2018-06-15T21:35:44.466Z,6.37
2018-06-15T21:38:12.768Z,6.13
2018-06-15T21:40:41.267Z,7.37
2018-06-15T21:43:09.635Z,6.83
2018-06-15T21:45:37.956Z,5.83
2018-06-15T21:48:06.242Z,6.70
2018-06-15T21:50:34.499Z,6.47
2018-06-15T21:53:03.790Z,9.03
2018-06-15T21:55:32.263Z,8.00
2018-06-15T21:58:01.538Z,7.10
2018-06-15T22:00:29.837Z,9.13
2018-06-15T22:02:58.260Z,6.13
2018-06-15T22:05:26.667Z,9.70
2018-06-15T22:07:55.014Z,6.23
2018-06-15T22:10:23.366Z,7.43
2018-06-15T22:12:51.632Z,8.27
2018-06-15T22:15:20.045Z,9.17
2018-06-15T22:17:49.504Z,11.00
2018-06-15T22:20:17.698Z,11.60
2018-06-15T22:22:46.028Z,8.83
2018-06-15T22:25:14.301Z,11.37
2018-06-15T22:27:42.549Z,11.97
2018-06-15T22:30:10.807Z,11.10
2018-06-15T22:32:39.171Z,11.27
2018-06-15T22:35:07.518Z,12.23
2018-06-15T22:37:35.858Z,12.40
2018-06-15T22:40:04.233Z,11.77
2018-06-15T22:42:32.468Z,12.60
2018-06-15T22:45:00.735Z,12.60
2018-06-15T22:47:29.103Z,11.10
2018-06-15T22:49:58.462Z,13.63
2018-06-15T22:52:26.821Z,12.97
2018-06-15T22:54:55.090Z,15.90
2018-06-15T22:57:23.304Z,14.17
2018-06-15T22:59:51.703Z,13.80
2018-06-15T23:02:19.910Z,11.93
2018-06-15T23:04:48.253Z,13.23
2018-06-15T23:07:16.736Z,11.97
2018-06-15T23:09:45.103Z,13.57
2018-06-15T23:12:13.423Z,13.93
2018-06-15T23:14:41.852Z,13.70
2018-06-15T23:17:10.149Z,15.80
2018-06-15T23:19:38.515Z,18.77
2018-06-15T23:22:06.893Z,15.07
2018-06-15T23:24:35.262Z,14.17
2018-06-15T23:27:03.581Z,17.37
2018-06-15T23:29:31.986Z,15.40
2018-06-15T23:32:00.237Z,15.17
2018-06-15T23:34:28.498Z,16.13
2018-06-15T23:36:56.850Z,15.20
2018-06-15T23:39:25.247Z,15.43
2018-06-15T23:41:53.477Z,17.57
2018-06-15T23:44:21.919Z,14.20
2018-06-15T23:46:50.205Z,17.60
2018-06-15T23:49:18.647Z,17.97
2018-06-15T23:51:47.731Z,18.33
2018-06-15T23:54:16.124Z,15.87
2018-06-15T23:56:45.452Z,20.47
2018-06-15T23:59:13.864Z,21.60
